Time;durP1;ratioP1;P1;durP2;ratioP2;P2;SDS_P1;SDS_P2;PMS_P1;PMS_P2;Temp;Humidity;BMP_temperature;BMP_pressure;BME280_temperature;BME280_humidity;BME280_pressure;Samples;Min_cycle;Max_cycle;Signal;HPM_P1;HPM_P2
2021/11/24 00:01:42;;;;;;;;;29.00;25.25;;;;;6.31;70.03;102270.28;5038880;28;45412;-72
2021/11/24 00:04:08;;;;;;;;;29.25;24.75;;;;;6.37;71.03;102257.03;5035432;28;45389;-71
2021/11/24 00:06:33;;;;;;;;;29.25;18.50;;;;;6.46;70.02;102257.63;5019291;28;45608;-72
2021/11/24 00:08:58;;;;;;;;;32.25;29.00;;;;;6.49;69.62;102249.72;5035134;28;46035;-72
2021/11/24 00:11:24;;;;;;;;;32.00;24.50;;;;;6.50;69.20;102247.06;5036557;28;45386;-69
2021/11/24 00:13:49;;;;;;;;;31.00;25.75;;;;;6.53;70.14;102246.09;5028439;28;45762;-68
2021/11/24 00:16:14;;;;;;;;;32.75;24.25;;;;;6.47;70.20;102233.25;5033857;28;45541;-72
2021/11/24 00:18:40;;;;;;;;;29.00;21.75;;;;;6.47;70.19;102233.25;5020545;28;46271;-77
2021/11/24 00:21:07;;;;;;;;;30.00;28.25;;;;;6.51;69.85;102245.28;5020882;28;51695;-75
2021/11/24 00:23:33;;;;;;;;;33.00;27.50;;;;;6.49;69.28;102237.53;5024314;28;45321;-77
2021/11/24 00:26:00;;;;;;;;;30.50;23.50;;;;;6.49;69.78;102239.28;5016557;28;50857;-76
2021/11/24 00:28:26;;;;;;;;;25.50;22.00;;;;;6.50;69.25;102238.34;5032051;28;48298;-78
2021/11/24 00:30:51;;;;;;;;;23.00;20.75;;;;;6.41;69.04;102229.94;5034792;28;45437;-73
2021/11/24 00:33:17;;;;;;;;;36.50;28.50;;;;;6.49;69.25;102231.47;5030931;28;45343;-73
2021/11/24 00:35:42;;;;;;;;;32.25;24.00;;;;;6.46;69.86;102234.16;5029047;28;45483;-81
2021/11/24 00:38:08;;;;;;;;;31.25;26.00;;;;;6.42;69.29;102236.00;5032170;28;45424;-74
2021/11/24 00:40:34;;;;;;;;;21.75;16.75;;;;;6.40;69.18;102236.06;5030805;28;48394;-75
2021/11/24 00:42:59;;;;;;;;;34.25;25.50;;;;;6.36;69.73;102237.06;5028501;28;45440;-75
2021/11/24 00:45:24;;;;;;;;;24.00;20.25;;;;;6.34;69.97;102240.63;5032099;28;45254;-75
2021/11/24 00:47:50;;;;;;;;;29.50;22.50;;;;;6.30;70.33;102233.81;5030744;28;45531;-75
2021/11/24 00:50:16;;;;;;;;;32.25;24.75;;;;;6.27;69.04;102234.75;5029223;28;45371;-74
2021/11/24 00:52:42;;;;;;;;;35.25;25.75;;;;;6.29;69.17;102240.75;5030580;28;45630;-73
2021/11/24 00:55:09;;;;;;;;;28.25;18.50;;;;;6.28;70.26;102233.84;5025131;28;45464;-74
2021/11/24 00:57:34;;;;;;;;;27.50;19.75;;;;;6.26;69.86;102231.28;5034034;28;46096;-76
2021/11/24 00:59:59;;;;;;;;;29.50;24.50;;;;;6.24;69.29;102221.78;5026118;28;45424;-78
2021/11/24 01:02:25;;;;;;;;;26.00;23.50;;;;;6.20;69.96;102217.56;5028041;28;45389;-75
2021/11/24 01:04:50;;;;;;;;;32.00;23.75;;;;;6.16;70.06;102214.19;5018791;28;45509;-75
2021/11/24 01:07:15;;;;;;;;;22.25;20.00;;;;;6.12;69.95;102212.59;5020848;28;46546;-75
2021/11/24 01:09:42;;;;;;;;;20.75;15.00;;;;;6.09;70.31;102212.69;5034558;28;45346;-76
2021/11/24 01:12:08;;;;;;;;;29.75;24.00;;;;;6.06;70.39;102207.59;5025671;28;45424;-76
2021/11/24 01:14:33;;;;;;;;;24.75;21.00;;;;;6.01;70.48;102199.91;5029967;28;45488;-76
2021/11/24 01:16:59;;;;;;;;;31.50;23.75;;;;;5.99;70.49;102195.63;5012447;28;47161;-78
2021/11/24 01:19:24;;;;;;;;;29.25;24.00;;;;;5.97;70.64;102203.47;5032743;28;45261;-78
2021/11/24 01:21:50;;;;;;;;;26.25;24.00;;;;;5.92;70.40;102205.38;5031243;28;45434;-77
2021/11/24 01:24:15;;;;;;;;;34.25;28.00;;;;;5.91;70.82;102188.84;5021648;28;45397;-79
2021/11/24 01:26:40;;;;;;;;;29.50;26.75;;;;;5.93;70.16;102196.66;5024159;28;46112;-80
2021/11/24 01:29:06;;;;;;;;;29.25;21.75;;;;;5.75;69.47;102196.31;5034108;28;45295;-79
2021/11/24 01:31:31;;;;;;;;;30.75;24.00;;;;;5.57;70.00;102192.50;5034368;28;45303;-79
2021/11/24 01:33:57;;;;;;;;;19.50;19.50;;;;;5.34;70.99;102190.56;5035370;28;45410;-78
2021/11/24 01:36:22;;;;;;;;;34.25;27.25;;;;;5.21;70.89;102186.59;5033634;28;46167;-72
2021/11/24 01:38:48;;;;;;;;;31.50;26.50;;;;;5.05;71.82;102189.63;5033976;28;45569;-72
2021/11/24 01:41:14;;;;;;;;;23.25;21.00;;;;;5.00;73.01;102183.69;5033926;28;45371;-71
2021/11/24 01:43:40;;;;;;;;;19.75;16.00;;;;;5.02;73.30;102188.84;5034059;28;45587;-72
2021/11/24 01:46:05;;;;;;;;;28.25;24.25;;;;;5.03;73.74;102178.38;5036422;28;46136;-72
2021/11/24 01:48:31;;;;;;;;;40.00;28.00;;;;;5.06;73.82;102182.66;5004646;28;45388;-71
2021/11/24 01:50:58;;;;;;;;;27.75;26.75;;;;;5.05;73.95;102176.59;5033429;28;45555;-72
2021/11/24 01:53:24;;;;;;;;;26.50;20.50;;;;;5.09;73.64;102185.19;5039826;28;45484;-74
2021/11/24 01:55:49;;;;;;;;;29.50;24.75;;;;;5.12;72.64;102185.97;5039138;28;47202;-72
2021/11/24 01:58:15;;;;;;;;;23.50;20.50;;;;;5.15;72.77;102176.34;5041145;28;45493;-72
2021/11/24 02:00:40;;;;;;;;;32.50;24.75;;;;;5.15;72.98;102165.94;5045141;28;45266;-71
2021/11/24 02:03:06;;;;;;;;;28.50;23.50;;;;;5.19;73.06;102167.53;5042814;28;45479;-73
2021/11/24 02:05:33;;;;;;;;;24.25;16.75;;;;;5.21;73.51;102165.75;5043528;28;45349;-73
2021/11/24 02:07:59;;;;;;;;;31.25;27.00;;;;;5.25;72.88;102167.38;5041701;28;45558;-72
2021/11/24 02:10:24;;;;;;;;;29.75;19.50;;;;;5.30;73.18;102165.50;5039268;28;45397;-72
2021/11/24 02:12:51;;;;;;;;;28.00;23.50;;;;;5.32;72.95;102166.31;5038150;28;45423;-73
2021/11/24 02:15:17;;;;;;;;;23.50;21.00;;;;;5.35;73.53;102166.22;5039155;28;46102;-71
2021/11/24 02:17:44;;;;;;;;;26.75;21.00;;;;;5.39;72.33;102159.16;5040415;28;45335;-73
2021/11/24 02:20:17;;;;;;;;;33.75;28.25;;;;;5.44;72.11;102171.16;5039259;28;45298;-74
2021/11/24 02:22:42;;;;;;;;;29.75;24.75;;;;;5.48;72.33;102160.66;5039249;28;45389;-72
2021/11/24 02:25:08;;;;;;;;;31.50;27.75;;;;;5.49;72.23;102157.13;5037520;28;46847;-70
2021/11/24 02:27:34;;;;;;;;;21.75;20.00;;;;;5.42;72.44;102154.72;5038461;28;45484;-74
2021/11/24 02:29:59;;;;;;;;;24.00;22.00;;;;;5.39;72.63;102154.78;5039491;28;45480;-72
2021/11/24 02:32:25;;;;;;;;;33.00;24.75;;;;;5.36;72.92;102147.06;5038333;28;45426;-72
2021/11/24 02:34:50;;;;;;;;;27.00;20.50;;;;;5.37;73.00;102146.19;5038631;28;45437;-74
2021/11/24 02:37:15;;;;;;;;;31.25;27.25;;;;;5.35;71.96;102153.19;5038620;28;45307;-72
2021/11/24 02:39:41;;;;;;;;;30.00;24.50;;;;;5.32;72.70;102145.47;5037347;28;45461;-72
2021/11/24 02:42:06;;;;;;;;;34.00;24.25;;;;;5.30;72.42;102142.03;5038353;28;45624;-73
2021/11/24 02:44:37;;;;;;;;;29.00;21.50;;;;;5.34;72.55;102148.84;5039174;28;46158;-72
2021/11/24 02:47:09;;;;;;;;;31.75;23.00;;;;;5.35;72.31;102141.91;5035987;28;45492;-73
2021/11/24 02:49:48;;;;;;;;;31.25;19.75;;;;;5.32;72.63;102137.66;5038247;28;45516;-72
2021/11/24 02:52:15;;;;;;;;;31.50;25.75;;;;;5.29;72.20;102137.72;5038052;28;45417;-72
2021/11/24 02:54:48;;;;;;;;;24.25;21.75;;;;;5.27;72.38;102134.31;5034683;28;45281;-72
2021/11/24 02:57:13;;;;;;;;;39.25;25.50;;;;;5.27;72.96;102116.09;5038180;28;45366;-73
2021/11/24 02:59:39;;;;;;;;;36.50;25.50;;;;;5.28;72.25;102123.00;5028975;28;45632;-74
2021/11/24 03:02:05;;;;;;;;;33.75;23.50;;;;;5.26;72.33;102117.81;5038061;28;45356;-72
2021/11/24 03:04:32;;;;;;;;;27.25;20.25;;;;;5.27;72.22;102113.47;5037875;28;47135;-73
2021/11/24 03:06:59;;;;;;;;;30.00;22.75;;;;;5.28;72.42;102109.97;5022737;28;45331;-73
2021/11/24 03:09:25;;;;;;;;;28.25;22.25;;;;;5.26;72.22;102106.56;5038852;28;45428;-73
2021/11/24 03:11:51;;;;;;;;;27.00;20.75;;;;;5.27;72.44;102097.84;5038929;28;45391;-71
2021/11/24 03:14:16;;;;;;;;;28.00;24.75;;;;;5.28;72.41;102100.41;5037239;28;45390;-72
2021/11/24 03:16:42;;;;;;;;;25.25;22.00;;;;;5.24;72.27;102088.38;5037899;28;45317;-74
2021/11/24 03:19:07;;;;;;;;;26.50;19.25;;;;;5.23;71.98;102091.03;5037079;28;45401;-72
2021/11/24 03:21:33;;;;;;;;;28.75;24.75;;;;;5.18;72.45;102085.09;5036785;28;45552;-73
2021/11/24 03:23:58;;;;;;;;;34.50;23.50;;;;;5.15;72.30;102087.78;5023312;28;47104;-73
2021/11/24 03:26:23;;;;;;;;;36.25;24.75;;;;;5.10;72.65;102080.94;5037675;28;45500;-73
2021/11/24 03:28:49;;;;;;;;;29.75;21.75;;;;;5.09;72.25;102081.84;5038718;28;45415;-73
2021/11/24 03:31:14;;;;;;;;;32.25;24.50;;;;;5.06;72.80;102081.06;5039121;28;45470;-72
2021/11/24 03:33:40;;;;;;;;;31.25;24.50;;;;;5.05;71.94;102080.22;5040827;28;45426;-73
2021/11/24 03:36:05;;;;;;;;;28.25;21.25;;;;;5.03;72.84;102089.84;5043522;28;45311;-72
2021/11/24 03:38:31;;;;;;;;;34.00;21.00;;;;;5.05;72.50;102080.22;5042819;28;45359;-73
2021/11/24 03:40:56;;;;;;;;;33.25;28.50;;;;;5.06;72.49;102074.13;5040377;28;45366;-73
2021/11/24 03:43:21;;;;;;;;;36.75;27.75;;;;;5.09;72.38;102067.97;5038032;28;46312;-72
2021/11/24 03:45:47;;;;;;;;;41.00;30.25;;;;;5.15;72.21;102070.41;5037533;28;45323;-73
2021/11/24 03:48:12;;;;;;;;;32.25;25.25;;;;;5.19;71.95;102069.41;5038519;28;45327;-73
2021/11/24 03:50:38;;;;;;;;;25.75;23.25;;;;;5.27;71.30;102061.38;5036843;28;45282;-71
2021/11/24 03:53:04;;;;;;;;;36.50;23.75;;;;;5.33;70.79;102049.88;5038162;28;45399;-74
2021/11/24 03:55:29;;;;;;;;;29.00;27.50;;;;;5.34;70.71;102052.44;5037475;28;45437;-72
2021/11/24 03:57:55;;;;;;;;;33.00;23.75;;;;;5.37;70.74;102054.97;5036359;28;45409;-73
2021/11/24 04:00:23;;;;;;;;;32.25;24.25;;;;;5.40;71.63;102052.25;5040266;28;46112;-72
2021/11/24 04:02:49;;;;;;;;;24.25;24.00;;;;;5.44;71.01;102043.44;5038387;28;47264;-72
2021/11/24 04:05:16;;;;;;;;;33.00;24.25;;;;;5.46;71.15;102046.00;5037079;28;45339;-71
2021/11/24 04:07:42;;;;;;;;;22.75;20.75;;;;;5.48;70.34;102045.97;5037210;28;45433;-72
2021/11/24 04:10:09;;;;;;;;;30.50;19.50;;;;;5.50;70.87;102046.75;5035740;28;45641;-72
2021/11/24 04:12:37;;;;;;;;;33.00;18.75;;;;;5.51;71.28;102044.09;5036428;28;45433;-71
2021/11/24 04:15:02;;;;;;;;;28.75;21.75;;;;;5.53;70.81;102041.47;5035728;28;45503;-71
2021/11/24 04:17:28;;;;;;;;;26.25;22.00;;;;;5.55;70.79;102042.25;5036954;28;45413;-72
2021/11/24 04:19:53;;;;;;;;;33.00;25.25;;;;;5.57;70.14;102032.63;5036489;28;45325;-71
2021/11/24 04:22:18;;;;;;;;;23.25;15.50;;;;;5.59;69.92;102041.25;5037432;28;45386;-72
2021/11/24 04:24:44;;;;;;;;;34.25;23.25;;;;;5.59;70.54;102038.63;5037145;28;45547;-72
2021/11/24 04:27:09;;;;;;;;;28.00;18.25;;;;;5.59;70.33;102031.69;5028762;28;45485;-72
2021/11/24 04:29:35;;;;;;;;;35.75;26.75;;;;;5.54;70.38;102032.72;5053851;28;45186;-72
2021/11/24 04:32:00;;;;;;;;;33.25;26.50;;;;;5.50;70.53;102031.13;5051935;28;45386;-73
2021/11/24 04:34:27;;;;;;;;;32.75;27.25;;;;;5.41;70.35;102020.09;5056879;28;45405;-73
2021/11/24 04:36:53;;;;;;;;;30.00;24.25;;;;;5.33;70.38;102019.47;5053536;28;45434;-73
2021/11/24 04:39:18;;;;;;;;;31.75;25.50;;;;;5.27;71.12;102017.06;5046899;28;45265;-73
2021/11/24 04:41:44;;;;;;;;;36.00;31.00;;;;;5.22;70.65;102008.53;5035966;28;45382;-73
2021/11/24 04:44:09;;;;;;;;;38.00;28.00;;;;;5.19;70.74;102016.44;5038514;28;45852;-73
2021/11/24 04:46:35;;;;;;;;;27.00;23.00;;;;;5.11;70.98;102017.53;5042908;28;45425;-73
2021/11/24 04:49:00;;;;;;;;;34.75;23.50;;;;;5.09;71.12;102010.69;5040789;28;45404;-73
2021/11/24 04:51:26;;;;;;;;;31.00;23.00;;;;;5.10;71.07;102020.19;5037005;28;47155;-72
2021/11/24 04:53:51;;;;;;;;;30.75;21.75;;;;;5.06;70.90;102016.84;5038064;28;45517;-73
2021/11/24 04:56:17;;;;;;;;;29.50;23.00;;;;;5.05;71.27;102020.31;5036264;28;45439;-73
2021/11/24 04:59:04;;;;;;;;;43.00;32.50;;;;;5.07;72.00;102026.34;5035711;28;45512;-73
2021/11/24 05:01:29;;;;;;;;;31.75;23.00;;;;;5.05;71.33;102009.91;5037528;28;46448;-74
2021/11/24 05:03:54;;;;;;;;;39.00;26.00;;;;;5.05;71.72;102007.31;5035766;28;45483;-73
2021/11/24 05:06:21;;;;;;;;;27.25;23.00;;;;;5.09;71.75;102010.69;5035324;28;45349;-72
2021/11/24 05:08:47;;;;;;;;;25.00;19.50;;;;;5.13;71.51;102010.53;5020436;28;45494;-73
2021/11/24 05:11:15;;;;;;;;;27.75;19.50;;;;;5.21;71.48;102009.44;5035898;28;45982;-73
2021/11/24 05:13:50;;;;;;;;;30.75;23.00;;;;;5.24;71.76;102010.19;5036355;28;45533;-72
2021/11/24 05:16:15;;;;;;;;;37.75;27.00;;;;;5.29;71.45;102010.03;5036021;28;45373;-72
2021/11/24 05:18:48;;;;;;;;;31.75;23.75;;;;;5.31;71.48;102005.66;5034817;28;45431;-72
2021/11/24 05:21:28;;;;;;;;;30.75;25.00;;;;;5.33;70.88;102005.59;5035452;28;46185;-73
2021/11/24 05:23:56;;;;;;;;;39.00;29.25;;;;;5.34;71.22;102010.75;5036068;28;45572;-73
2021/11/24 05:26:21;;;;;;;;;17.00;11.75;;;;;5.36;70.68;102008.09;5034943;28;45482;-73
2021/11/24 05:28:47;;;;;;;;;32.00;26.75;;;;;5.35;70.35;102016.84;5035860;28;45517;-73
2021/11/24 05:31:13;;;;;;;;;31.25;24.50;;;;;5.33;70.12;102003.00;5033387;28;45468;-73
2021/11/24 05:33:38;;;;;;;;;30.00;23.50;;;;;5.31;70.02;102005.66;5036451;28;45384;-71
2021/11/24 05:36:05;;;;;;;;;35.00;24.50;;;;;5.28;70.05;102006.59;5040884;28;45424;-72
2021/11/24 05:38:30;;;;;;;;;33.00;26.50;;;;;5.24;70.35;102014.53;5039016;28;45487;-72
2021/11/24 05:40:55;;;;;;;;;22.25;14.50;;;;;5.17;70.26;102002.63;5035241;28;45541;-73
2021/11/24 05:43:22;;;;;;;;;32.50;24.25;;;;;5.16;70.16;101993.94;5034230;28;45637;-74
2021/11/24 05:48:16;;;;;;;;;38.75;25.00;;;;;5.13;70.36;101986.22;5035520;28;45392;-74
2021/11/24 05:50:44;;;;;;;;;22.75;18.25;;;;;5.12;70.08;101977.56;5044471;28;46179;-73
2021/11/24 05:53:11;;;;;;;;;29.75;22.75;;;;;5.12;71.08;101982.78;5041464;28;45421;-73
2021/11/24 05:55:37;;;;;;;;;32.00;22.25;;;;;5.11;70.47;101973.25;5021072;28;45596;-74
2021/11/24 05:58:03;;;;;;;;;30.75;23.00;;;;;5.16;70.57;101980.91;5035232;28;45362;-72
2021/11/24 06:00:28;;;;;;;;;37.25;27.75;;;;;5.18;70.66;101978.28;5036483;28;47102;-72
2021/11/24 06:02:53;;;;;;;;;28.25;22.50;;;;;5.21;70.08;101986.84;5035315;28;45382;-72
2021/11/24 06:05:19;;;;;;;;;43.00;30.75;;;;;5.20;69.94;101984.28;5037121;28;45495;-73
2021/11/24 06:07:47;;;;;;;;;33.25;25.50;;;;;5.22;70.54;101982.50;5015018;28;45603;-73
2021/11/24 06:10:13;;;;;;;;;38.50;28.75;;;;;5.22;69.76;101975.53;5033350;28;46505;-74
2021/11/24 06:12:38;;;;;;;;;33.25;22.00;;;;;5.23;69.72;101971.19;5036990;28;45402;-74
2021/11/24 06:15:05;;;;;;;;;25.25;21.50;;;;;5.19;70.13;101969.53;5035038;28;45325;-72
2021/11/24 06:17:31;;;;;;;;;29.00;22.50;;;;;5.17;69.97;101972.22;5035118;28;45603;-72
2021/11/24 06:19:56;;;;;;;;;31.50;21.75;;;;;5.17;69.51;101969.59;5034724;28;45399;-72
2021/11/24 06:22:21;;;;;;;;;27.75;25.25;;;;;5.17;69.60;101969.59;5034744;28;45495;-73
2021/11/24 06:24:47;;;;;;;;;32.50;25.75;;;;;5.10;70.07;101963.75;5034618;28;45870;-72
2021/11/24 06:27:13;;;;;;;;;31.25;26.25;;;;;5.18;70.37;101970.47;5036468;28;45579;-73
2021/11/24 06:29:38;;;;;;;;;33.25;26.25;;;;;5.20;69.68;101979.06;5035266;28;45424;-73
2021/11/24 06:32:04;;;;;;;;;26.50;26.50;;;;;5.18;69.92;101962.66;5034793;28;45321;-72
2021/11/24 06:34:31;;;;;;;;;30.75;23.00;;;;;5.16;69.52;101967.88;5035117;28;45359;-73
2021/11/24 06:36:57;;;;;;;;;33.00;27.00;;;;;5.11;69.65;101962.84;5033829;28;45247;-73
2021/11/24 06:39:24;;;;;;;;;31.00;26.75;;;;;5.10;69.75;101962.91;5034619;28;46201;-73
2021/11/24 06:41:50;;;;;;;;;15.50;9.25;;;;;4.99;69.64;101958.00;5036457;28;46061;-74
2021/11/24 06:44:16;;;;;;;;;29.75;23.00;;;;;4.96;69.83;101963.31;5038588;28;45518;-73
2021/11/24 06:46:42;;;;;;;;;29.75;17.00;;;;;4.95;70.45;101956.41;5038224;28;45654;-73
2021/11/24 06:49:08;;;;;;;;;39.00;29.75;;;;;4.98;69.78;101956.28;5037409;28;46312;-73
2021/11/24 06:51:33;;;;;;;;;29.00;23.50;;;;;4.95;69.73;101945.97;5038709;28;45544;-73
2021/11/24 06:53:59;;;;;;;;;42.25;29.75;;;;;4.95;70.43;101949.44;5037864;28;45562;-74
2021/11/24 06:56:25;;;;;;;;;31.50;26.25;;;;;4.94;70.54;101946.88;5037400;28;45691;-74
2021/11/24 06:58:50;;;;;;;;;29.75;23.00;;;;;4.89;70.25;101952.25;5040649;28;46333;-74
2021/11/24 07:01:16;;;;;;;;;32.75;28.75;;;;;4.83;70.02;101944.63;5038667;28;45337;-73
2021/11/24 07:03:41;;;;;;;;;38.25;25.25;;;;;4.75;70.28;101947.44;5039924;28;46168;-75
2021/11/24 07:06:06;;;;;;;;;27.25;21.50;;;;;4.66;70.62;101946.84;5038334;28;45403;-74
2021/11/24 07:08:32;;;;;;;;;43.25;29.25;;;;;4.49;70.73;101936.94;5039655;28;47284;-75
2021/11/24 07:10:57;;;;;;;;;27.50;20.75;;;;;4.52;70.91;101947.28;5038036;28;45567;-75
2021/11/24 07:13:23;;;;;;;;;24.75;17.50;;;;;4.52;70.96;101949.88;5037529;28;45534;-74
2021/11/24 07:15:48;;;;;;;;;35.75;27.25;;;;;4.49;70.70;101937.81;5023976;28;45425;-74
2021/11/24 07:18:14;;;;;;;;;35.75;26.50;;;;;4.47;71.09;101956.06;5036571;28;46219;-74
2021/11/24 07:20:39;;;;;;;;;30.75;23.25;;;;;4.46;71.13;101949.16;5039769;28;45464;-74
2021/11/24 07:23:04;;;;;;;;;31.25;26.25;;;;;4.51;70.98;101950.78;5039333;28;45417;-75
2021/11/24 07:25:31;;;;;;;;;29.00;24.25;;;;;4.49;71.19;101944.75;5041281;28;45522;-74
2021/11/24 07:27:57;;;;;;;;;36.25;28.25;;;;;4.49;70.70;101947.34;5036670;28;45438;-74
2021/11/24 07:30:22;;;;;;;;;34.00;25.00;;;;;4.45;71.02;101950.06;5038425;28;45389;-74
2021/11/24 07:32:48;;;;;;;;;33.00;28.25;;;;;4.50;71.31;101951.66;5038220;28;45478;-74
2021/11/24 07:35:14;;;;;;;;;31.25;25.50;;;;;4.54;71.49;101940.28;5040859;28;45396;-73
2021/11/24 07:37:40;;;;;;;;;40.75;29.50;;;;;4.53;71.11;101936.81;5038648;28;45554;-74
2021/11/24 07:40:08;;;;;;;;;29.75;24.75;;;;;4.54;71.11;101940.28;5039483;28;45326;-74
2021/11/24 07:42:33;;;;;;;;;25.75;20.50;;;;;4.49;71.06;101931.75;5039333;28;45321;-75
2021/11/24 07:44:59;;;;;;;;;23.00;19.00;;;;;4.46;71.20;101933.56;5023202;28;45362;-74
2021/11/24 07:47:25;;;;;;;;;39.75;25.00;;;;;4.44;71.09;101927.53;5037399;28;46368;-75
2021/11/24 07:49:51;;;;;;;;;31.25;25.25;;;;;4.43;71.25;101928.41;5037570;28;45493;-74
2021/11/24 07:52:17;;;;;;;;;37.50;30.00;;;;;4.46;71.02;101922.28;5020514;28;45510;-75
2021/11/24 07:54:43;;;;;;;;;43.00;29.50;;;;;4.55;71.40;101936.78;5041398;28;45418;-74
2021/11/24 07:57:09;;;;;;;;;26.25;21.25;;;;;4.60;70.93;101940.09;5037486;28;47114;-73
2021/11/24 07:59:36;;;;;;;;;28.50;21.50;;;;;4.63;70.65;101950.41;5037112;28;45372;-75
2021/11/24 08:02:01;;;;;;;;;34.75;29.25;;;;;4.65;70.50;101943.41;5037415;28;45483;-75
2021/11/24 08:04:28;;;;;;;;;36.00;29.00;;;;;4.69;70.59;101944.19;5039479;28;45453;-75
2021/11/24 08:06:53;;;;;;;;;34.75;25.75;;;;;4.68;70.50;101953.72;5038441;28;45426;-73
2021/11/24 08:09:19;;;;;;;;;41.50;27.75;;;;;4.69;70.09;101945.03;5038952;28;45440;-72
2021/11/24 08:11:46;;;;;;;;;32.75;29.75;;;;;4.68;70.42;101945.91;5039125;28;45646;-75
2021/11/24 08:14:11;;;;;;;;;34.25;26.50;;;;;4.70;70.56;101940.69;5039562;28;45409;-73
2021/11/24 08:16:37;;;;;;;;;41.75;30.00;;;;;4.69;70.17;101933.78;5036523;28;45984;-74
2021/11/24 08:19:02;;;;;;;;;41.75;23.50;;;;;4.75;70.70;101924.03;5035685;28;45412;-72
2021/11/24 08:21:27;;;;;;;;;35.25;26.75;;;;;4.80;70.06;101923.88;5037066;28;45478;-73
2021/11/24 08:23:53;;;;;;;;;38.25;30.75;;;;;4.77;70.10;101931.78;5036970;28;45234;-73
2021/11/24 08:26:18;;;;;;;;;33.50;26.25;;;;;4.79;70.22;101928.22;5036558;28;46282;-74
2021/11/24 08:28:44;;;;;;;;;39.25;27.25;;;;;4.83;70.12;101935.97;5036709;28;45644;-74
2021/11/24 08:31:09;;;;;;;;;37.50;28.50;;;;;4.85;70.43;101929.81;5035638;28;45473;-74
2021/11/24 08:33:35;;;;;;;;;23.75;17.50;;;;;4.89;70.39;101930.53;5036559;28;45457;-73
2021/11/24 08:36:00;;;;;;;;;38.25;31.00;;;;;4.98;70.00;101935.47;5036515;28;46373;-73
2021/11/24 08:38:25;;;;;;;;;30.25;22.00;;;;;5.00;69.89;101922.41;5036818;28;45509;-72
2021/11/24 08:40:51;;;;;;;;;41.50;29.00;;;;;5.06;69.94;101924.81;5032213;28;45722;-73
2021/11/24 08:43:16;;;;;;;;;34.25;24.25;;;;;5.11;69.91;101921.16;5018911;28;45270;-73
2021/11/24 08:45:42;;;;;;;;;27.75;25.50;;;;;5.12;69.83;101917.66;5036404;28;46014;-73
2021/11/24 08:48:07;;;;;;;;;32.50;27.75;;;;;5.13;69.33;101914.13;5042029;28;45269;-73
2021/11/24 08:50:35;;;;;;;;;44.00;26.50;;;;;5.13;69.62;101919.34;5042010;28;45369;-74
2021/11/24 08:53:01;;;;;;;;;36.25;28.50;;;;;5.11;69.74;101912.47;5036154;28;49570;-68
2021/11/24 08:55:27;;;;;;;;;32.25;24.00;;;;;5.12;69.70;101915.06;5036476;28;45687;-70
2021/11/24 08:57:52;;;;;;;;;38.75;28.00;;;;;5.11;70.04;101910.75;5035530;28;45419;-70
2021/11/24 09:00:21;;;;;;;;;33.50;26.75;;;;;5.08;69.90;101904.78;5034840;28;45420;-79
2021/11/24 09:02:50;;;;;;;;;30.25;29.50;;;;;4.95;69.77;101899.94;5024440;28;45527;-79
2021/11/24 09:05:17;;;;;;;;;37.00;26.75;;;;;4.85;69.71;101901.16;5027375;28;46154;-78
2021/11/24 09:07:43;;;;;;;;;41.75;30.25;;;;;4.72;69.31;101895.50;5039621;28;45512;-77
2021/11/24 09:10:09;;;;;;;;;38.00;28.50;;;;;4.52;69.82;101887.44;5038248;28;45431;-73
2021/11/24 09:12:35;;;;;;;;;33.75;22.50;;;;;4.42;70.12;101895.53;5042191;28;45502;-77
2021/11/24 09:15:00;;;;;;;;;35.00;24.75;;;;;4.39;70.92;101892.16;5041683;28;45324;-79
2021/11/24 09:17:26;;;;;;;;;21.00;16.25;;;;;4.32;70.40;101883.69;5043389;28;45444;-79
2021/11/24 09:19:51;;;;;;;;;31.00;26.00;;;;;4.24;70.49;101896.03;5043983;28;45266;-80
2021/11/24 09:22:17;;;;;;;;;35.25;23.75;;;;;4.18;71.24;101891.88;5044847;28;45503;-78
2021/11/24 09:24:44;;;;;;;;;34.50;27.75;;;;;4.18;71.44;101881.47;5040896;28;46226;-78
2021/11/24 09:29:38;;;;;;;;;36.75;26.25;;;;;4.17;71.71;101884.13;5041983;28;45593;-79
2021/11/24 09:32:04;;;;;;;;;36.50;27.25;;;;;4.19;71.83;101884.91;5019422;28;45652;-80
2021/11/24 09:34:31;;;;;;;;;30.75;21.25;;;;;4.22;71.56;101883.09;5036534;28;45467;-77
2021/11/24 09:36:57;;;;;;;;;29.00;24.00;;;;;4.18;71.91;101888.41;5035807;28;45430;-79
2021/11/24 09:39:23;;;;;;;;;36.00;23.75;;;;;4.13;72.23;101884.19;5026569;28;45590;-78
2021/11/24 09:41:50;;;;;;;;;25.00;20.25;;;;;4.15;72.40;101881.53;5037550;28;45453;-77
2021/11/24 09:44:16;;;;;;;;;26.50;22.00;;;;;4.11;71.97;101874.72;5036434;28;45457;-77
2021/11/24 09:46:43;;;;;;;;;25.00;20.00;;;;;4.06;72.11;101871.41;5037549;28;45295;-77
2021/11/24 09:49:09;;;;;;;;;15.25;8.75;;;;;4.03;72.13;101882.75;5035758;28;45388;-78
2021/11/24 09:51:34;;;;;;;;;27.50;18.75;;;;;4.01;72.23;101871.56;5023238;28;45534;-79
2021/11/24 09:54:02;;;;;;;;;29.50;22.75;;;;;4.02;72.09;101878.47;5038403;28;45488;-80
2021/11/24 09:56:28;;;;;;;;;33.50;24.75;;;;;4.02;72.96;101862.88;5035601;28;45480;-72
2021/11/24 09:58:53;;;;;;;;;26.75;22.00;;;;;4.13;73.52;101868.59;5035867;28;45301;-69
2021/11/24 10:01:19;;;;;;;;;27.50;22.25;;;;;4.32;73.04;101862.00;5035224;28;45667;-70
2021/11/24 10:03:45;;;;;;;;;22.25;20.00;;;;;4.48;72.69;101868.44;5035458;28;47095;-70
2021/11/24 10:06:10;;;;;;;;;28.75;22.75;;;;;4.62;72.59;101862.84;5034744;28;45432;-68
2021/11/24 10:08:36;;;;;;;;;17.50;13.00;;;;;4.76;71.41;101873.66;5035083;28;45602;-70
2021/11/24 10:11:02;;;;;;;;;26.00;22.00;;;;;4.86;72.08;101862.94;5035795;28;45528;-70
2021/11/24 10:13:28;;;;;;;;;20.00;16.50;;;;;4.93;71.99;101869.66;5035956;28;45353;-69
2021/11/24 10:15:57;;;;;;;;;32.50;24.75;;;;;5.02;71.33;101864.16;5034809;28;45494;-69
2021/11/24 10:18:26;;;;;;;;;28.50;23.75;;;;;5.12;71.37;101864.69;5039021;28;45373;-69
2021/11/24 10:21:06;;;;;;;;;28.25;23.25;;;;;5.19;70.57;101855.78;5038966;28;45427;-69
2021/11/24 10:23:35;;;;;;;;;32.25;20.25;;;;;5.25;70.29;101846.91;5027538;28;46208;-69
2021/11/24 10:26:22;;;;;;;;;27.50;19.25;;;;;5.31;70.74;101838.88;5041676;28;45623;-70
2021/11/24 10:29:12;;;;;;;;;28.75;24.25;;;;;5.48;70.82;101840.06;5028665;28;45522;-69
2021/11/24 10:31:46;;;;;;;;;34.25;26.25;;;;;5.61;70.46;101830.91;5024624;28;45417;-69
2021/11/24 10:34:18;;;;;;;;;28.00;19.50;;;;;5.68;69.89;101832.41;5039595;28;45342;-69
2021/11/24 10:37:05;;;;;;;;;25.25;22.25;;;;;5.79;69.57;101830.22;5037284;28;45450;-70
2021/11/24 10:39:39;;;;;;;;;29.00;23.00;;;;;5.85;69.33;101828.31;5039724;28;45335;-69
2021/11/24 10:42:16;;;;;;;;;26.75;18.00;;;;;5.87;69.10;101816.91;5041609;28;45422;-69
2021/11/24 10:44:45;;;;;;;;;24.00;20.75;;;;;5.92;69.52;101821.97;5043281;28;46023;-68
2021/11/24 10:47:13;;;;;;;;;29.50;21.00;;;;;5.97;69.12;101809.59;5044763;28;49628;-69
2021/11/24 10:49:44;;;;;;;;;24.50;20.75;;;;;5.99;68.37;101815.63;5045399;28;45391;-70
2021/11/24 10:52:31;;;;;;;;;27.50;22.00;;;;;6.02;68.27;101806.84;5040861;28;45601;-69
2021/11/24 10:55:03;;;;;;;;;18.75;17.75;;;;;6.07;68.37;101804.91;5032487;28;47302;-70
2021/11/24 10:57:29;;;;;;;;;27.00;19.25;;;;;6.10;68.31;101797.81;5041899;28;45274;-69
2021/11/24 11:00:00;;;;;;;;;31.00;21.25;;;;;6.14;68.65;101797.69;5041919;28;45539;-70
2021/11/24 11:02:30;;;;;;;;;23.00;21.50;;;;;6.12;67.78;101789.94;5042110;28;45658;-69
2021/11/24 11:05:10;;;;;;;;;28.00;21.25;;;;;6.09;68.42;101780.47;5042303;28;47012;-68
2021/11/24 11:07:40;;;;;;;;;29.00;24.25;;;;;6.15;68.90;101778.53;5009079;28;45483;-68
2021/11/24 11:10:08;;;;;;;;;30.50;21.50;;;;;6.23;68.23;101777.31;5040338;28;45385;-68
2021/11/24 11:12:35;;;;;;;;;28.50;20.75;;;;;6.34;68.05;101769.06;5039450;28;45415;-70
2021/11/24 11:15:36;;;;;;;;;21.75;20.25;;;;;6.40;67.61;101762.78;5029274;28;47470;-70
2021/11/24 11:18:18;;;;;;;;;24.75;21.75;;;;;6.45;67.59;101760.81;5026235;28;45686;-70
2021/11/24 11:21:05;;;;;;;;;32.00;22.75;;;;;6.47;67.71;101748.53;5042875;28;45385;-70